sensor_id;sensor_type;location;lat;lon;timestamp;pressure;altitude;pressure_sealevel;temperature;humidity
3748;BME280;1889;50.058;8.688;2023-04-01T00:01:31;98526.73;;;12.29;67.50
3748;BME280;1889;50.058;8.688;2023-04-01T00:04:00;98529.52;;;12.26;67.29
3748;BME280;1889;50.058;8.688;2023-04-01T00:06:30;98532.95;;;12.36;67.26
3748;BME280;1889;50.058;8.688;2023-04-01T00:08:59;98528.98;;;12.28;67.01
3748;BME280;1889;50.058;8.688;2023-04-01T00:11:29;98536.81;;;12.12;67.41
3748;BME280;1889;50.058;8.688;2023-04-01T00:13:58;98526.03;;;11.99;67.81
3748;BME280;1889;50.058;8.688;2023-04-01T00:16:33;98530.55;;;12.23;67.54
3748;BME280;1889;50.058;8.688;2023-04-01T00:18:58;98527.11;;;12.04;67.52
3748;BME280;1889;50.058;8.688;2023-04-01T00:21:28;98531.06;;;12.04;67.65
3748;BME280;1889;50.058;8.688;2023-04-01T00:23:57;98521.70;;;12.07;67.29
3748;BME280;1889;50.058;8.688;2023-04-01T00:26:27;98517.97;;;12.19;67.41
3748;BME280;1889;50.058;8.688;2023-04-01T00:28:56;98513.23;;;12.26;67.23
3748;BME280;1889;50.058;8.688;2023-04-01T00:31:26;98513.63;;;12.18;67.46
3748;BME280;1889;50.058;8.688;2023-04-01T00:33:55;98527.58;;;12.12;67.28
3748;BME280;1889;50.058;8.688;2023-04-01T00:36:24;98520.06;;;12.13;67.00
3748;BME280;1889;50.058;8.688;2023-04-01T00:38:54;98515.95;;;11.99;67.27
3748;BME280;1889;50.058;8.688;2023-04-01T00:41:24;98512.53;;;12.05;67.35
3748;BME280;1889;50.058;8.688;2023-04-01T00:46:42;98521.32;;;12.32;67.06
3748;BME280;1889;50.058;8.688;2023-04-01T00:49:13;98515.19;;;12.31;66.72
3748;BME280;1889;50.058;8.688;2023-04-01T00:51:43;98515.41;;;12.52;66.25
3748;BME280;1889;50.058;8.688;2023-04-01T00:54:15;98512.09;;;12.32;66.27
3748;BME280;1889;50.058;8.688;2023-04-01T00:56:54;98519.54;;;12.32;66.06
3748;BME280;1889;50.058;8.688;2023-04-01T00:59:30;98511.62;;;12.32;66.20
3748;BME280;1889;50.058;8.688;2023-04-01T01:02:02;98525.28;;;12.23;66.06
3748;BME280;1889;50.058;8.688;2023-04-01T01:04:33;98514.80;;;12.21;66.57
3748;BME280;1889;50.058;8.688;2023-04-01T01:12:30;98515.47;;;12.16;66.13
3748;BME280;1889;50.058;8.688;2023-04-01T01:15:12;98517.64;;;12.08;66.35
3748;BME280;1889;50.058;8.688;2023-04-01T01:17:56;98516.25;;;12.10;66.02
3748;BME280;1889;50.058;8.688;2023-04-01T01:29:40;98522.68;;;11.96;66.50
3748;BME280;1889;50.058;8.688;2023-04-01T01:37:23;98526.41;;;12.09;66.13
3748;BME280;1889;50.058;8.688;2023-04-01T01:40:06;98523.88;;;12.16;66.14
3748;BME280;1889;50.058;8.688;2023-04-01T01:42:27;98528.91;;;12.20;65.65
3748;BME280;1889;50.058;8.688;2023-04-01T01:44:59;98523.95;;;12.23;65.96
3748;BME280;1889;50.058;8.688;2023-04-01T01:47:31;98518.05;;;12.44;65.51
3748;BME280;1889;50.058;8.688;2023-04-01T01:50:02;98524.25;;;12.43;65.03
3748;BME280;1889;50.058;8.688;2023-04-01T01:52:33;98523.85;;;12.50;64.83
3748;BME280;1889;50.058;8.688;2023-04-01T01:55:02;98521.22;;;12.50;65.13
3748;BME280;1889;50.058;8.688;2023-04-01T01:57:35;98519.97;;;12.57;64.60
3748;BME280;1889;50.058;8.688;2023-04-01T02:00:09;98519.11;;;12.57;64.53
3748;BME280;1889;50.058;8.688;2023-04-01T02:02:45;98527.27;;;12.70;64.70
3748;BME280;1889;50.058;8.688;2023-04-01T02:05:21;98526.73;;;12.63;64.14
3748;BME280;1889;50.058;8.688;2023-04-01T02:07:57;98516.62;;;12.80;64.18
3748;BME280;1889;50.058;8.688;2023-04-01T02:10:25;98524.28;;;12.84;64.23
3748;BME280;1889;50.058;8.688;2023-04-01T02:12:59;98523.42;;;12.84;64.07
3748;BME280;1889;50.058;8.688;2023-04-01T02:15:31;98509.76;;;12.84;63.93
3748;BME280;1889;50.058;8.688;2023-04-01T02:18:02;98521.52;;;13.03;63.59
3748;BME280;1889;50.058;8.688;2023-04-01T02:20:33;98519.93;;;12.83;63.65
3748;BME280;1889;50.058;8.688;2023-04-01T02:23:04;98494.33;;;12.77;63.76
3748;BME280;1889;50.058;8.688;2023-04-01T02:25:37;98516.10;;;12.65;63.90
3748;BME280;1889;50.058;8.688;2023-04-01T02:28:08;98509.38;;;12.75;63.92
3748;BME280;1889;50.058;8.688;2023-04-01T02:30:39;98508.39;;;12.69;64.17
3748;BME280;1889;50.058;8.688;2023-04-01T02:33:10;98505.13;;;12.81;63.89
3748;BME280;1889;50.058;8.688;2023-04-01T02:35:40;98510.42;;;12.72;63.59
3748;BME280;1889;50.058;8.688;2023-04-01T02:38:09;98501.48;;;12.57;64.36
3748;BME280;1889;50.058;8.688;2023-04-01T02:40:44;98507.48;;;12.52;64.03
3748;BME280;1889;50.058;8.688;2023-04-01T02:43:14;98507.98;;;12.76;64.03
3748;BME280;1889;50.058;8.688;2023-04-01T02:45:44;98506.05;;;12.80;63.95
3748;BME280;1889;50.058;8.688;2023-04-01T02:48:13;98501.09;;;12.98;63.33
3748;BME280;1889;50.058;8.688;2023-04-01T02:50:43;98514.16;;;12.92;63.44
3748;BME280;1889;50.058;8.688;2023-04-01T02:53:12;98508.83;;;12.85;63.75
3748;BME280;1889;50.058;8.688;2023-04-01T02:55:41;98508.21;;;12.89;63.44
3748;BME280;1889;50.058;8.688;2023-04-01T02:58:11;98502.75;;;12.92;63.30
3748;BME280;1889;50.058;8.688;2023-04-01T03:00:41;98517.72;;;13.00;63.29
3748;BME280;1889;50.058;8.688;2023-04-01T03:03:10;98511.25;;;13.14;63.02
3748;BME280;1889;50.058;8.688;2023-04-01T03:05:41;98511.78;;;12.88;63.48
3748;BME280;1889;50.058;8.688;2023-04-01T03:08:11;98508.13;;;12.82;63.90
3748;BME280;1889;50.058;8.688;2023-04-01T03:10:40;98513.91;;;12.73;64.19
3748;BME280;1889;50.058;8.688;2023-04-01T03:13:09;98514.61;;;12.59;64.81
3748;BME280;1889;50.058;8.688;2023-04-01T03:15:39;98511.73;;;12.81;64.08
3748;BME280;1889;50.058;8.688;2023-04-01T03:18:08;98516.55;;;12.73;63.99
3748;BME280;1889;50.058;8.688;2023-04-01T03:20:37;98510.96;;;12.70;64.43
3748;BME280;1889;50.058;8.688;2023-04-01T03:23:08;98510.03;;;12.71;64.24
3748;BME280;1889;50.058;8.688;2023-04-01T03:25:37;98515.84;;;12.69;64.61
3748;BME280;1889;50.058;8.688;2023-04-01T03:28:06;98509.27;;;12.43;65.42
3748;BME280;1889;50.058;8.688;2023-04-01T03:30:36;98515.32;;;12.63;65.00
3748;BME280;1889;50.058;8.688;2023-04-01T03:33:05;98513.94;;;12.55;64.69
3748;BME280;1889;50.058;8.688;2023-04-01T03:35:35;98510.33;;;12.65;64.71
3748;BME280;1889;50.058;8.688;2023-04-01T03:38:04;98510.05;;;12.63;64.92
3748;BME280;1889;50.058;8.688;2023-04-01T03:40:33;98513.77;;;12.50;65.02
3748;BME280;1889;50.058;8.688;2023-04-01T03:43:04;98512.16;;;12.47;65.18
3748;BME280;1889;50.058;8.688;2023-04-01T03:45:36;98509.20;;;12.53;65.31
3748;BME280;1889;50.058;8.688;2023-04-01T03:48:05;98512.83;;;12.59;64.82
3748;BME280;1889;50.058;8.688;2023-04-01T03:50:34;98507.78;;;12.72;64.84
3748;BME280;1889;50.058;8.688;2023-04-01T03:53:04;98508.53;;;12.74;64.57
3748;BME280;1889;50.058;8.688;2023-04-01T03:55:33;98511.89;;;12.69;64.83
3748;BME280;1889;50.058;8.688;2023-04-01T03:58:05;98512.69;;;12.63;64.61
3748;BME280;1889;50.058;8.688;2023-04-01T04:00:35;98513.70;;;12.43;65.24
3748;BME280;1889;50.058;8.688;2023-04-01T04:03:06;98510.13;;;12.44;64.98
3748;BME280;1889;50.058;8.688;2023-04-01T04:05:35;98501.35;;;12.52;65.29
3748;BME280;1889;50.058;8.688;2023-04-01T04:08:04;98508.59;;;12.31;65.69
3748;BME280;1889;50.058;8.688;2023-04-01T04:10:34;98514.40;;;12.55;65.37
3748;BME280;1889;50.058;8.688;2023-04-01T04:13:03;98511.28;;;12.64;64.75
3748;BME280;1889;50.058;8.688;2023-04-01T04:15:33;98508.48;;;12.41;65.47
3748;BME280;1889;50.058;8.688;2023-04-01T04:18:02;98510.59;;;12.43;65.30
3748;BME280;1889;50.058;8.688;2023-04-01T04:20:31;98515.48;;;12.51;65.02
3748;BME280;1889;50.058;8.688;2023-04-01T04:23:01;98511.52;;;12.34;65.51
3748;BME280;1889;50.058;8.688;2023-04-01T04:25:30;98510.66;;;12.50;65.29
3748;BME280;1889;50.058;8.688;2023-04-01T04:27:59;98511.05;;;12.51;65.32
3748;BME280;1889;50.058;8.688;2023-04-01T04:30:28;98517.33;;;12.49;65.29
3748;BME280;1889;50.058;8.688;2023-04-01T04:32:58;98491.66;;;12.27;65.92
3748;BME280;1889;50.058;8.688;2023-04-01T04:35:27;98509.98;;;12.21;66.20
3748;BME280;1889;50.058;8.688;2023-04-01T04:37:56;98503.39;;;12.21;65.99
3748;BME280;1889;50.058;8.688;2023-04-01T04:40:26;98497.41;;;12.26;66.30
3748;BME280;1889;50.058;8.688;2023-04-01T04:42:55;98503.86;;;12.20;66.16
3748;BME280;1889;50.058;8.688;2023-04-01T04:45:24;98505.42;;;12.16;66.40
3748;BME280;1889;50.058;8.688;2023-04-01T04:47:54;98496.09;;;12.35;65.95
3748;BME280;1889;50.058;8.688;2023-04-01T04:50:24;98496.94;;;12.18;66.43
3748;BME280;1889;50.058;8.688;2023-04-01T04:52:54;98505.32;;;12.26;66.24
3748;BME280;1889;50.058;8.688;2023-04-01T04:55:23;98505.25;;;12.28;65.84
3748;BME280;1889;50.058;8.688;2023-04-01T04:57:52;98514.23;;;11.98;66.92
3748;BME280;1889;50.058;8.688;2023-04-01T05:00:22;98495.16;;;12.10;66.88
3748;BME280;1889;50.058;8.688;2023-04-01T05:02:51;98502.99;;;12.11;66.39
3748;BME280;1889;50.058;8.688;2023-04-01T05:05:21;98503.70;;;12.15;66.65
3748;BME280;1889;50.058;8.688;2023-04-01T05:07:50;98500.90;;;12.18;66.30
3748;BME280;1889;50.058;8.688;2023-04-01T05:10:19;98512.16;;;12.30;66.47
3748;BME280;1889;50.058;8.688;2023-04-01T05:12:49;98503.67;;;12.49;65.86
3748;BME280;1889;50.058;8.688;2023-04-01T05:15:18;98508.02;;;12.50;65.65
3748;BME280;1889;50.058;8.688;2023-04-01T05:17:47;98503.53;;;12.44;65.53
3748;BME280;1889;50.058;8.688;2023-04-01T05:20:17;98499.43;;;12.47;65.71
3748;BME280;1889;50.058;8.688;2023-04-01T05:22:46;98499.36;;;12.40;65.30
3748;BME280;1889;50.058;8.688;2023-04-01T05:25:15;98505.84;;;12.50;65.62
3748;BME280;1889;50.058;8.688;2023-04-01T05:27:45;98503.39;;;12.30;65.92
3748;BME280;1889;50.058;8.688;2023-04-01T05:30:14;98508.87;;;12.59;65.43
3748;BME280;1889;50.058;8.688;2023-04-01T05:32:43;98501.59;;;12.56;65.17
3748;BME280;1889;50.058;8.688;2023-04-01T05:35:13;98499.02;;;12.63;65.20
3748;BME280;1889;50.058;8.688;2023-04-01T05:37:42;98503.92;;;12.19;67.05
3748;BME280;1889;50.058;8.688;2023-04-01T05:40:12;98496.17;;;11.99;69.08
3748;BME280;1889;50.058;8.688;2023-04-01T05:42:47;98495.89;;;11.77;71.23
3748;BME280;1889;50.058;8.688;2023-04-01T05:45:12;98497.30;;;11.57;72.12
3748;BME280;1889;50.058;8.688;2023-04-01T05:47:43;98496.94;;;11.83;72.94
3748;BME280;1889;50.058;8.688;2023-04-01T05:50:12;98494.75;;;11.74;72.88
3748;BME280;1889;50.058;8.688;2023-04-01T05:52:42;98489.25;;;11.69;73.42
3748;BME280;1889;50.058;8.688;2023-04-01T05:55:12;98493.42;;;11.74;73.78
3748;BME280;1889;50.058;8.688;2023-04-01T05:57:41;98493.20;;;11.88;74.31
3748;BME280;1889;50.058;8.688;2023-04-01T06:00:12;98497.70;;;11.58;74.72
3748;BME280;1889;50.058;8.688;2023-04-01T06:02:41;98497.70;;;11.58;74.72
3748;BME280;1889;50.058;8.688;2023-04-01T06:07:47;98503.89;;;11.57;76.46
3748;BME280;1889;50.058;8.688;2023-04-01T06:10:19;98496.03;;;11.47;75.93
3748;BME280;1889;50.058;8.688;2023-04-01T06:13:11;98493.80;;;11.29;76.10
3748;BME280;1889;50.058;8.688;2023-04-01T06:24:53;98494.66;;;11.84;74.98
3748;BME280;1889;50.058;8.688;2023-04-01T06:32:33;98498.34;;;11.72;75.34
3748;BME280;1889;50.058;8.688;2023-04-01T06:43:17;98496.02;;;11.66;73.68
3748;BME280;1889;50.058;8.688;2023-04-01T06:46:19;98499.41;;;11.87;72.69
3748;BME280;1889;50.058;8.688;2023-04-01T06:51:47;98504.45;;;12.08;71.63
3748;BME280;1889;50.058;8.688;2023-04-01T06:54:28;98490.80;;;12.09;71.44
3748;BME280;1889;50.058;8.688;2023-04-01T06:56:59;98496.79;;;12.04;71.70
3748;BME280;1889;50.058;8.688;2023-04-01T06:59:32;98492.05;;;12.10;71.30
3748;BME280;1889;50.058;8.688;2023-04-01T07:02:32;98498.26;;;12.18;71.03
3748;BME280;1889;50.058;8.688;2023-04-01T07:05:01;98497.94;;;12.33;71.01
3748;BME280;1889;50.058;8.688;2023-04-01T07:07:48;98501.15;;;12.31;71.85
3748;BME280;1889;50.058;8.688;2023-04-01T07:10:23;98501.22;;;12.38;71.38
3748;BME280;1889;50.058;8.688;2023-04-01T07:12:53;98498.58;;;12.46;70.93
3748;BME280;1889;50.058;8.688;2023-04-01T07:15:32;98493.44;;;12.09;72.38
3748;BME280;1889;50.058;8.688;2023-04-01T07:18:07;98491.45;;;12.31;71.78
3748;BME280;1889;50.058;8.688;2023-04-01T07:20:32;98497.02;;;12.34;71.27
3748;BME280;1889;50.058;8.688;2023-04-01T07:23:05;98510.66;;;12.50;71.12
3748;BME280;1889;50.058;8.688;2023-04-01T07:25:38;98505.89;;;12.24;71.14
3748;BME280;1889;50.058;8.688;2023-04-01T07:28:13;98500.44;;;12.27;71.88
3748;BME280;1889;50.058;8.688;2023-04-01T07:30:58;98502.93;;;12.39;71.48
3748;BME280;1889;50.058;8.688;2023-04-01T07:36:06;98507.16;;;12.58;71.35
3748;BME280;1889;50.058;8.688;2023-04-01T07:38:48;98513.48;;;12.47;70.69
3748;BME280;1889;50.058;8.688;2023-04-01T07:41:23;98514.55;;;12.52;71.69
3748;BME280;1889;50.058;8.688;2023-04-01T07:52:35;98521.87;;;12.88;69.76
3748;BME280;1889;50.058;8.688;2023-04-01T07:55:23;98521.87;;;12.88;69.76
3748;BME280;1889;50.058;8.688;2023-04-01T08:01:04;98526.12;;;12.91;70.18
3748;BME280;1889;50.058;8.688;2023-04-01T08:06:47;98533.09;;;13.00;69.82
3748;BME280;1889;50.058;8.688;2023-04-01T08:09:38;98526.87;;;13.19;69.32
3748;BME280;1889;50.058;8.688;2023-04-01T08:12:27;98534.30;;;13.28;69.30
3748;BME280;1889;50.058;8.688;2023-04-01T08:17:45;98532.64;;;13.50;68.21
3748;BME280;1889;50.058;8.688;2023-04-01T08:20:41;98544.61;;;13.32;68.45
3748;BME280;1889;50.058;8.688;2023-04-01T08:26:06;98535.24;;;12.77;68.99
3748;BME280;1889;50.058;8.688;2023-04-01T08:28:29;98546.44;;;13.15;68.82
3748;BME280;1889;50.058;8.688;2023-04-01T08:31:19;98545.09;;;12.73;69.96
3748;BME280;1889;50.058;8.688;2023-04-01T08:33:49;98554.44;;;12.72;70.57
3748;BME280;1889;50.058;8.688;2023-04-01T08:36:26;98546.45;;;12.39;72.01
3748;BME280;1889;50.058;8.688;2023-04-01T08:39:19;98546.45;;;12.39;72.01
3748;BME280;1889;50.058;8.688;2023-04-01T08:51:07;98546.80;;;12.74;72.64
3748;BME280;1889;50.058;8.688;2023-04-01T08:56:12;98553.69;;;13.03;72.48
3748;BME280;1889;50.058;8.688;2023-04-01T09:01:56;98555.24;;;12.89;74.45
3748;BME280;1889;50.058;8.688;2023-04-01T09:10:14;98567.20;;;13.05;75.01
3748;BME280;1889;50.058;8.688;2023-04-01T09:13:02;98565.48;;;13.21;74.90
3748;BME280;1889;50.058;8.688;2023-04-01T09:18:37;98558.19;;;13.58;73.57
3748;BME280;1889;50.058;8.688;2023-04-01T09:21:24;98565.40;;;13.14;75.51
3748;BME280;1889;50.058;8.688;2023-04-01T09:24:30;98565.40;;;13.14;75.51
3748;BME280;1889;50.058;8.688;2023-04-01T09:32:45;98571.75;;;13.52;74.29
3748;BME280;1889;50.058;8.688;2023-04-01T09:35:39;98570.63;;;13.56;73.92
3748;BME280;1889;50.058;8.688;2023-04-01T09:44:00;98580.92;;;13.53;74.19
3748;BME280;1889;50.058;8.688;2023-04-01T09:52:07;98579.61;;;13.69;74.36
3748;BME280;1889;50.058;8.688;2023-04-01T09:57:50;98576.44;;;13.38;76.43
3748;BME280;1889;50.058;8.688;2023-04-01T10:00:50;98582.72;;;13.11;77.43
3748;BME280;1889;50.058;8.688;2023-04-01T10:09:06;98591.46;;;13.62;76.54
3748;BME280;1889;50.058;8.688;2023-04-01T10:14:35;98592.84;;;13.20;78.29
3748;BME280;1889;50.058;8.688;2023-04-01T10:17:25;98597.40;;;13.50;77.57
3748;BME280;1889;50.058;8.688;2023-04-01T10:23:01;98596.80;;;13.69;76.42
3748;BME280;1889;50.058;8.688;2023-04-01T10:34:25;98601.11;;;13.94;76.00
3748;BME280;1889;50.058;8.688;2023-04-01T10:37:00;98600.26;;;13.94;76.17
3748;BME280;1889;50.058;8.688;2023-04-01T10:57:12;98598.63;;;13.91;76.87
3748;BME280;1889;50.058;8.688;2023-04-01T10:59:51;98597.89;;;13.81;76.72
3748;BME280;1889;50.058;8.688;2023-04-01T11:05:05;98596.09;;;13.97;76.69
3748;BME280;1889;50.058;8.688;2023-04-01T11:13:30;98598.70;;;14.67;75.08
3748;BME280;1889;50.058;8.688;2023-04-01T11:16:15;98603.55;;;14.13;77.14
3748;BME280;1889;50.058;8.688;2023-04-01T11:19:24;98607.17;;;14.50;75.47
3748;BME280;1889;50.058;8.688;2023-04-01T11:21:58;98607.17;;;14.50;75.47
3748;BME280;1889;50.058;8.688;2023-04-01T11:30:33;98601.91;;;14.65;75.41
3748;BME280;1889;50.058;8.688;2023-04-01T11:33:21;98599.92;;;14.68;75.66
3748;BME280;1889;50.058;8.688;2023-04-01T11:36:54;98602.83;;;15.01;74.82
3748;BME280;1889;50.058;8.688;2023-04-01T11:44:29;98597.98;;;14.86;73.87
3748;BME280;1889;50.058;8.688;2023-04-01T11:50:27;98601.56;;;14.85;73.96
3748;BME280;1889;50.058;8.688;2023-04-01T11:53:18;98604.23;;;14.55;73.21
3748;BME280;1889;50.058;8.688;2023-04-01T11:59:22;98609.77;;;14.66;71.84
3748;BME280;1889;50.058;8.688;2023-04-01T12:01:48;98607.52;;;14.74;70.43
3748;BME280;1889;50.058;8.688;2023-04-01T12:04:29;98605.61;;;14.76;70.21
3748;BME280;1889;50.058;8.688;2023-04-01T12:18:14;98612.09;;;15.01;70.51
3748;BME280;1889;50.058;8.688;2023-04-01T12:23:32;98614.50;;;15.19;70.31
3748;BME280;1889;50.058;8.688;2023-04-01T12:29:22;98626.98;;;14.66;70.52
3748;BME280;1889;50.058;8.688;2023-04-01T12:34:50;98644.09;;;14.13;74.01
3748;BME280;1889;50.058;8.688;2023-04-01T12:37:40;98638.32;;;14.30;74.10
3748;BME280;1889;50.058;8.688;2023-04-01T12:40:28;98646.38;;;14.35;74.93
3748;BME280;1889;50.058;8.688;2023-04-01T12:51:21;98656.38;;;13.83;77.43
3748;BME280;1889;50.058;8.688;2023-04-01T13:00:00;98653.47;;;14.19;76.56
3748;BME280;1889;50.058;8.688;2023-04-01T13:11:18;98655.83;;;14.32;79.01
3748;BME280;1889;50.058;8.688;2023-04-01T13:14:52;98662.70;;;14.43;79.04
3748;BME280;1889;50.058;8.688;2023-04-01T13:16:59;98666.66;;;14.82;78.41
3748;BME280;1889;50.058;8.688;2023-04-01T13:19:54;98666.66;;;14.82;78.41
3748;BME280;1889;50.058;8.688;2023-04-01T13:28:32;98674.95;;;14.53;78.19
3748;BME280;1889;50.058;8.688;2023-04-01T13:31:02;98674.13;;;14.60;77.51
3748;BME280;1889;50.058;8.688;2023-04-01T13:39:35;98685.24;;;14.66;76.53
3748;BME280;1889;50.058;8.688;2023-04-01T13:42:08;98687.01;;;14.59;75.51
3748;BME280;1889;50.058;8.688;2023-04-01T13:44:37;98690.67;;;14.56;76.19
3748;BME280;1889;50.058;8.688;2023-04-01T13:47:30;98691.86;;;14.66;75.07
3748;BME280;1889;50.058;8.688;2023-04-01T13:55:53;98693.78;;;15.08;74.68
3748;BME280;1889;50.058;8.688;2023-04-01T13:58:23;98693.78;;;15.08;74.68
3748;BME280;1889;50.058;8.688;2023-04-01T14:03:53;98698.18;;;14.64;75.34
3748;BME280;1889;50.058;8.688;2023-04-01T14:20:28;98709.19;;;14.72;77.22
3748;BME280;1889;50.058;8.688;2023-04-01T14:26:07;98704.44;;;14.70;78.36
3748;BME280;1889;50.058;8.688;2023-04-01T14:34:25;98709.39;;;14.29;86.99
3748;BME280;1889;50.058;8.688;2023-04-01T14:37:03;98722.10;;;13.82;90.57
3748;BME280;1889;50.058;8.688;2023-04-01T14:46:08;98724.74;;;13.41;90.52
3748;BME280;1889;50.058;8.688;2023-04-01T14:51:03;98740.78;;;13.20;92.96
3748;BME280;1889;50.058;8.688;2023-04-01T14:53:41;98749.56;;;13.21;94.14
3748;BME280;1889;50.058;8.688;2023-04-01T14:56:05;98745.28;;;13.18;93.41
3748;BME280;1889;50.058;8.688;2023-04-01T14:58:46;98745.28;;;13.18;93.41
3748;BME280;1889;50.058;8.688;2023-04-01T15:01:31;98744.13;;;12.79;92.77
3748;BME280;1889;50.058;8.688;2023-04-01T15:12:29;98749.13;;;13.54;88.91
3748;BME280;1889;50.058;8.688;2023-04-01T15:18:12;98737.35;;;13.35;87.70
3748;BME280;1889;50.058;8.688;2023-04-01T15:23:54;98758.77;;;13.55;87.67
3748;BME280;1889;50.058;8.688;2023-04-01T15:31:56;98759.08;;;13.66;86.62
3748;BME280;1889;50.058;8.688;2023-04-01T15:40:15;98770.55;;;13.91;85.02
3748;BME280;1889;50.058;8.688;2023-04-01T15:43:49;98770.99;;;13.99;82.20
3748;BME280;1889;50.058;8.688;2023-04-01T15:45:49;98772.91;;;14.29;82.76
3748;BME280;1889;50.058;8.688;2023-04-01T15:48:13;98772.91;;;14.29;82.76
3748;BME280;1889;50.058;8.688;2023-04-01T15:50:51;98774.45;;;13.84;80.85
3748;BME280;1889;50.058;8.688;2023-04-01T16:05:00;98781.98;;;13.92;81.81
3748;BME280;1889;50.058;8.688;2023-04-01T16:07:51;98781.22;;;13.81;81.05
3748;BME280;1889;50.058;8.688;2023-04-01T16:13:28;98790.45;;;14.23;81.96
3748;BME280;1889;50.058;8.688;2023-04-01T16:16:19;98790.27;;;14.34;81.76
3748;BME280;1889;50.058;8.688;2023-04-01T16:22:12;98789.97;;;14.56;80.34
3748;BME280;1889;50.058;8.688;2023-04-01T16:24:46;98800.05;;;14.49;79.44
3748;BME280;1889;50.058;8.688;2023-04-01T16:33:20;98810.33;;;14.47;82.46
3748;BME280;1889;50.058;8.688;2023-04-01T16:35:53;98817.94;;;14.11;83.86
3748;BME280;1889;50.058;8.688;2023-04-01T16:41:11;98813.39;;;13.98;85.00
3748;BME280;1889;50.058;8.688;2023-04-01T16:43:51;98828.50;;;13.79;84.23
3748;BME280;1889;50.058;8.688;2023-04-01T16:46:38;98829.91;;;13.94;84.79
3748;BME280;1889;50.058;8.688;2023-04-01T16:49:23;98829.91;;;13.94;84.79
3748;BME280;1889;50.058;8.688;2023-04-01T16:55:11;98837.27;;;13.96;83.24
3748;BME280;1889;50.058;8.688;2023-04-01T16:57:52;98837.27;;;13.96;83.24
3748;BME280;1889;50.058;8.688;2023-04-01T17:03:29;98844.06;;;13.93;82.80
3748;BME280;1889;50.058;8.688;2023-04-01T17:20:26;98867.16;;;13.98;81.59
3748;BME280;1889;50.058;8.688;2023-04-01T17:23:32;98868.62;;;13.87;80.26
3748;BME280;1889;50.058;8.688;2023-04-01T17:31:45;98874.95;;;13.67;78.88
3748;BME280;1889;50.058;8.688;2023-04-01T17:37:30;98893.29;;;13.87;79.60
3748;BME280;1889;50.058;8.688;2023-04-01T17:40:20;98896.78;;;13.70;79.52
3748;BME280;1889;50.058;8.688;2023-04-01T17:43:00;98896.78;;;13.70;79.52
3748;BME280;1889;50.058;8.688;2023-04-01T17:53:46;98906.73;;;13.57;78.52
3748;BME280;1889;50.058;8.688;2023-04-01T17:59:09;98915.51;;;13.49;79.04
3748;BME280;1889;50.058;8.688;2023-04-01T18:07:36;98943.02;;;13.36;77.70
3748;BME280;1889;50.058;8.688;2023-04-01T18:13:29;98942.38;;;13.40;78.35
3748;BME280;1889;50.058;8.688;2023-04-01T18:24:11;98974.47;;;13.59;78.01
3748;BME280;1889;50.058;8.688;2023-04-01T18:26:38;98974.47;;;13.59;78.01
3748;BME280;1889;50.058;8.688;2023-04-01T18:32:31;98973.48;;;13.79;77.55
3748;BME280;1889;50.058;8.688;2023-04-01T18:35:14;98985.05;;;13.59;77.10
3748;BME280;1889;50.058;8.688;2023-04-01T18:37:39;98991.54;;;13.44;77.46
3748;BME280;1889;50.058;8.688;2023-04-01T18:46:00;98999.87;;;12.97;78.30
3748;BME280;1889;50.058;8.688;2023-04-01T18:48:40;99003.53;;;13.32;78.60
3748;BME280;1889;50.058;8.688;2023-04-01T18:53:57;99014.45;;;13.62;78.35
3748;BME280;1889;50.058;8.688;2023-04-01T18:56:37;99014.45;;;13.62;78.35
3748;BME280;1889;50.058;8.688;2023-04-01T18:59:16;99022.41;;;13.79;77.92
3748;BME280;1889;50.058;8.688;2023-04-01T19:02:08;99026.33;;;13.89;77.27
3748;BME280;1889;50.058;8.688;2023-04-01T19:07:40;99027.84;;;13.67;75.27
3748;BME280;1889;50.058;8.688;2023-04-01T19:15:24;99047.38;;;13.17;76.51
3748;BME280;1889;50.058;8.688;2023-04-01T19:17:56;99052.83;;;13.52;75.88
3748;BME280;1889;50.058;8.688;2023-04-01T19:20:37;99052.83;;;13.52;75.88
3748;BME280;1889;50.058;8.688;2023-04-01T19:25:47;99050.98;;;13.62;74.36
3748;BME280;1889;50.058;8.688;2023-04-01T19:28:41;99055.44;;;13.14;74.36
3748;BME280;1889;50.058;8.688;2023-04-01T19:39:37;99064.30;;;13.03;75.64
3748;BME280;1889;50.058;8.688;2023-04-01T19:42:10;99074.00;;;13.42;75.69
3748;BME280;1889;50.058;8.688;2023-04-01T19:45:05;99077.23;;;13.19;74.71
3748;BME280;1889;50.058;8.688;2023-04-01T19:51:00;99074.58;;;13.09;73.89
3748;BME280;1889;50.058;8.688;2023-04-01T19:56:18;99078.93;;;13.49;73.48
3748;BME280;1889;50.058;8.688;2023-04-01T19:58:54;99078.93;;;13.49;73.48
3748;BME280;1889;50.058;8.688;2023-04-01T20:04:12;99086.58;;;13.36;73.02
3748;BME280;1889;50.058;8.688;2023-04-01T20:09:41;99092.63;;;13.38;72.87
3748;BME280;1889;50.058;8.688;2023-04-01T20:12:32;99092.63;;;13.38;72.87
3748;BME280;1889;50.058;8.688;2023-04-01T20:15:27;99102.12;;;13.24;73.22
3748;BME280;1889;50.058;8.688;2023-04-01T20:17:51;99113.02;;;13.36;72.85
3748;BME280;1889;50.058;8.688;2023-04-01T20:20:29;99113.02;;;13.36;72.85
3748;BME280;1889;50.058;8.688;2023-04-01T20:25:49;99122.73;;;13.16;72.65
3748;BME280;1889;50.058;8.688;2023-04-01T20:28:32;99129.73;;;13.37;72.57
3748;BME280;1889;50.058;8.688;2023-04-01T20:31:06;99129.73;;;13.37;72.57
3748;BME280;1889;50.058;8.688;2023-04-01T20:36:43;99139.63;;;13.12;72.43
3748;BME280;1889;50.058;8.688;2023-04-01T20:42:01;99143.47;;;12.94;72.72
3748;BME280;1889;50.058;8.688;2023-04-01T20:44:33;99146.57;;;12.94;73.46
3748;BME280;1889;50.058;8.688;2023-04-01T20:52:25;99153.18;;;13.24;72.06
3748;BME280;1889;50.058;8.688;2023-04-01T20:57:51;99159.57;;;13.09;71.66
3748;BME280;1889;50.058;8.688;2023-04-01T21:09:17;99169.44;;;13.35;71.92
3748;BME280;1889;50.058;8.688;2023-04-01T21:11:55;99170.36;;;13.24;71.83
3748;BME280;1889;50.058;8.688;2023-04-01T21:17:15;99178.92;;;13.40;70.98
3748;BME280;1889;50.058;8.688;2023-04-01T21:20:00;99178.92;;;13.40;70.98
3748;BME280;1889;50.058;8.688;2023-04-01T21:22:36;99185.56;;;13.68;70.15
3748;BME280;1889;50.058;8.688;2023-04-01T21:39:46;99211.96;;;13.50;69.79
3748;BME280;1889;50.058;8.688;2023-04-01T21:42:26;99217.25;;;13.79;69.50
3748;BME280;1889;50.058;8.688;2023-04-01T21:45:10;99214.48;;;13.82;69.57
3748;BME280;1889;50.058;8.688;2023-04-01T21:50:55;99221.39;;;13.65;69.92
3748;BME280;1889;50.058;8.688;2023-04-01T21:56:42;99224.07;;;13.84;69.33
3748;BME280;1889;50.058;8.688;2023-04-01T21:59:14;99228.27;;;13.98;69.17
3748;BME280;1889;50.058;8.688;2023-04-01T22:01:49;99228.27;;;13.98;69.17
3748;BME280;1889;50.058;8.688;2023-04-01T22:06:56;99234.23;;;13.93;69.21